sensor_id;sensor_type;location;lat;lon;timestamp;P1;P4;P2;P0;N10;N4;N25;N1;N05;TS
44530;SPS30;30240;47.418;0.700;2023-08-21T00:00:14;1.4037532;;1.4035783;;;;;;;
44530;SPS30;30240;47.418;0.700;2023-08-21T00:02:39;1.758832;;1.7552745;;;;;;;
44530;SPS30;30240;47.418;0.700;2023-08-21T00:05:04;1.758832;;1.7552745;;;;;;;
44530;SPS30;30240;47.418;0.700;2023-08-21T00:07:28;1.2562978;;1.2362251;;;;;;;
44530;SPS30;30240;47.418;0.700;2023-08-21T00:09:53;1.3190265;;1.2997795;;;;;;;
44530;SPS30;30240;47.418;0.700;2023-08-21T00:12:18;1.124519;;1.1061407;;;;;;;
44530;SPS30;30240;47.418;0.700;2023-08-21T00:14:43;0.9976546;;0.97447276;;;;;;;
44530;SPS30;30240;47.418;0.700;2023-08-21T00:17:09;0.9976546;;0.97447276;;;;;;;
44530;SPS30;30240;47.418;0.700;2023-08-21T00:19:33;1.2237874;;1.2237874;;;;;;;
44530;SPS30;30240;47.418;0.700;2023-08-21T00:21:59;0.9763153;;0.9763153;;;;;;;
44530;SPS30;30240;47.418;0.700;2023-08-21T00:24:23;1.3751922;;1.3751922;;;;;;;
44530;SPS30;30240;47.418;0.700;2023-08-21T00:26:48;1.3197422;;1.3197422;;;;;;;
44530;SPS30;30240;47.418;0.700;2023-08-21T00:29:13;1.3197422;;1.3197422;;;;;;;
44530;SPS30;30240;47.418;0.700;2023-08-21T00:31:38;1.3812574;;1.3812574;;;;;;;
44530;SPS30;30240;47.418;0.700;2023-08-21T00:34:03;1.353538;;1.353538;;;;;;;
44530;SPS30;30240;47.418;0.700;2023-08-21T00:36:28;1.4145;;1.4145;;;;;;;
44530;SPS30;30240;47.418;0.700;2023-08-21T00:38:54;1.4991686;;1.4991686;;;;;;;
44530;SPS30;30240;47.418;0.700;2023-08-21T00:41:18;1.4991686;;1.4991686;;;;;;;
44530;SPS30;30240;47.418;0.700;2023-08-21T00:43:43;1.3107709;;1.3107709;;;;;;;
44530;SPS30;30240;47.418;0.700;2023-08-21T00:46:08;1.462274;;1.462274;;;;;;;
44530;SPS30;30240;47.418;0.700;2023-08-21T00:48:33;1.4627817;;1.4625762;;;;;;;
44530;SPS30;30240;47.418;0.700;2023-08-21T00:50:58;1.6958675;;1.6958675;;;;;;;
44530;SPS30;30240;47.418;0.700;2023-08-21T00:53:23;1.6958675;;1.6958675;;;;;;;
44530;SPS30;30240;47.418;0.700;2023-08-21T00:55:48;1.913832;;1.913832;;;;;;;
44530;SPS30;30240;47.418;0.700;2023-08-21T00:58:13;1.4688587;;1.4688587;;;;;;;
44530;SPS30;30240;47.418;0.700;2023-08-21T01:00:39;1.7603811;;1.7603811;;;;;;;
44530;SPS30;30240;47.418;0.700;2023-08-21T01:03:03;1.439248;;1.439248;;;;;;;
44530;SPS30;30240;47.418;0.700;2023-08-21T01:05:28;1.7917869;;1.7917869;;;;;;;
44530;SPS30;30240;47.418;0.700;2023-08-21T01:07:56;1.7917869;;1.7917869;;;;;;;
44530;SPS30;30240;47.418;0.700;2023-08-21T01:10:20;1.6326603;;1.6326603;;;;;;;
44530;SPS30;30240;47.418;0.700;2023-08-21T01:12:45;1.5938612;;1.5938612;;;;;;;
44530;SPS30;30240;47.418;0.700;2023-08-21T01:15:08;1.9007078;;1.9007078;;;;;;;
44530;SPS30;30240;47.418;0.700;2023-08-21T01:17:34;1.5709231;;1.5709231;;;;;;;
44530;SPS30;30240;47.418;0.700;2023-08-21T01:19:58;1.5709231;;1.5709231;;;;;;;
44530;SPS30;30240;47.418;0.700;2023-08-21T01:22:25;1.7994312;;1.7994312;;;;;;;
44530;SPS30;30240;47.418;0.700;2023-08-21T01:24:48;1.8693117;;1.8693117;;;;;;;
44530;SPS30;30240;47.418;0.700;2023-08-21T01:27:13;1.5339357;;1.5339357;;;;;;;
44530;SPS30;30240;47.418;0.700;2023-08-21T01:29:38;2.128479;;2.128479;;;;;;;
44530;SPS30;30240;47.418;0.700;2023-08-21T01:32:05;2.128479;;2.128479;;;;;;;
44530;SPS30;30240;47.418;0.700;2023-08-21T01:34:28;1.7333025;;1.7242619;;;;;;;
44530;SPS30;30240;47.418;0.700;2023-08-21T01:36:53;2.096135;;2.096135;;;;;;;
44530;SPS30;30240;47.418;0.700;2023-08-21T01:39:18;1.8199109;;1.8199109;;;;;;;
44530;SPS30;30240;47.418;0.700;2023-08-21T01:41:44;1.8583705;;1.8583705;;;;;;;
44530;SPS30;30240;47.418;0.700;2023-08-21T01:44:08;1.8583705;;1.8583705;;;;;;;
44530;SPS30;30240;47.418;0.700;2023-08-21T01:46:33;1.7236503;;1.7236503;;;;;;;
44530;SPS30;30240;47.418;0.700;2023-08-21T01:48:58;1.7741858;;1.7741858;;;;;;;
44530;SPS30;30240;47.418;0.700;2023-08-21T01:51:23;2.0138147;;2.0138147;;;;;;;
44530;SPS30;30240;47.418;0.700;2023-08-21T01:53:48;1.8850961;;1.8850961;;;;;;;
44530;SPS30;30240;47.418;0.700;2023-08-21T01:56:13;1.8850961;;1.8850961;;;;;;;
44530;SPS30;30240;47.418;0.700;2023-08-21T01:58:38;1.660387;;1.660387;;;;;;;
44530;SPS30;30240;47.418;0.700;2023-08-21T02:01:04;2.0738497;;2.0738497;;;;;;;
44530;SPS30;30240;47.418;0.700;2023-08-21T02:03:28;1.8582218;;1.8582218;;;;;;;
44530;SPS30;30240;47.418;0.700;2023-08-21T02:05:55;2.025894;;2.025894;;;;;;;
44530;SPS30;30240;47.418;0.700;2023-08-21T02:08:18;2.025894;;2.025894;;;;;;;
44530;SPS30;30240;47.418;0.700;2023-08-21T02:10:48;1.900587;;1.900587;;;;;;;
44530;SPS30;30240;47.418;0.700;2023-08-21T02:13:08;1.673987;;1.673987;;;;;;;
44530;SPS30;30240;47.418;0.700;2023-08-21T02:15:34;1.8521612;;1.8521612;;;;;;;
44530;SPS30;30240;47.418;0.700;2023-08-21T02:18:00;1.8596383;;1.8596383;;;;;;;
44530;SPS30;30240;47.418;0.700;2023-08-21T02:20:23;1.8596383;;1.8596383;;;;;;;
44530;SPS30;30240;47.418;0.700;2023-08-21T02:22:49;1.6404222;;1.6404222;;;;;;;
44530;SPS30;30240;47.418;0.700;2023-08-21T02:25:14;2.3155427;;2.3155427;;;;;;;
44530;SPS30;30240;47.418;0.700;2023-08-21T02:27:38;1.7744801;;1.7744801;;;;;;;
44530;SPS30;30240;47.418;0.700;2023-08-21T02:30:04;1.7286464;;1.7286464;;;;;;;
44530;SPS30;30240;47.418;0.700;2023-08-21T02:32:28;1.7699721;;1.7699721;;;;;;;
44530;SPS30;30240;47.418;0.700;2023-08-21T02:34:53;1.7699721;;1.7699721;;;;;;;
44530;SPS30;30240;47.418;0.700;2023-08-21T02:37:18;1.7500174;;1.7500174;;;;;;;
44530;SPS30;30240;47.418;0.700;2023-08-21T02:39:43;1.8610777;;1.8610777;;;;;;;
44530;SPS30;30240;47.418;0.700;2023-08-21T02:42:08;2.3769834;;2.3769834;;;;;;;
44530;SPS30;30240;47.418;0.700;2023-08-21T02:44:33;2.3566363;;2.3566363;;;;;;;
44530;SPS30;30240;47.418;0.700;2023-08-21T02:46:58;2.3566363;;2.3566363;;;;;;;
44530;SPS30;30240;47.418;0.700;2023-08-21T02:49:23;1.944223;;1.944223;;;;;;;
44530;SPS30;30240;47.418;0.700;2023-08-21T02:51:48;1.7632666;;1.7632666;;;;;;;
44530;SPS30;30240;47.418;0.700;2023-08-21T02:54:13;1.7771462;;1.7771462;;;;;;;
44530;SPS30;30240;47.418;0.700;2023-08-21T02:56:38;1.5841868;;1.5841868;;;;;;;
44530;SPS30;30240;47.418;0.700;2023-08-21T02:59:03;1.5841868;;1.5841868;;;;;;;
44530;SPS30;30240;47.418;0.700;2023-08-21T03:01:28;1.9068047;;1.9068047;;;;;;;
44530;SPS30;30240;47.418;0.700;2023-08-21T03:03:53;2.3842025;;2.3842025;;;;;;;
44530;SPS30;30240;47.418;0.700;2023-08-21T03:06:18;1.9265546;;1.9265546;;;;;;;
44530;SPS30;30240;47.418;0.700;2023-08-21T03:08:43;2.134068;;2.134068;;;;;;;
44530;SPS30;30240;47.418;0.700;2023-08-21T03:11:08;2.134068;;2.134068;;;;;;;
44530;SPS30;30240;47.418;0.700;2023-08-21T03:13:34;1.7816191;;1.7816191;;;;;;;
44530;SPS30;30240;47.418;0.700;2023-08-21T03:15:58;2.3568614;;2.3568614;;;;;;;
44530;SPS30;30240;47.418;0.700;2023-08-21T03:18:23;2.1874049;;2.1874049;;;;;;;
44530;SPS30;30240;47.418;0.700;2023-08-21T03:20:48;2.283089;;2.255779;;;;;;;
44530;SPS30;30240;47.418;0.700;2023-08-21T03:23:13;2.283089;;2.255779;;;;;;;
44530;SPS30;30240;47.418;0.700;2023-08-21T03:25:38;2.2054915;;2.2054915;;;;;;;
44530;SPS30;30240;47.418;0.700;2023-08-21T03:28:03;1.9329343;;1.9328843;;;;;;;
44530;SPS30;30240;47.418;0.700;2023-08-21T03:30:28;1.8261871;;1.8261871;;;;;;;
44530;SPS30;30240;47.418;0.700;2023-08-21T03:32:54;2.0873437;;2.0873437;;;;;;;
44530;SPS30;30240;47.418;0.700;2023-08-21T03:35:18;2.0873437;;2.0873437;;;;;;;
44530;SPS30;30240;47.418;0.700;2023-08-21T03:37:43;1.9100579;;1.9100579;;;;;;;
44530;SPS30;30240;47.418;0.700;2023-08-21T03:40:09;1.9279938;;1.9279938;;;;;;;
44530;SPS30;30240;47.418;0.700;2023-08-21T03:42:34;2.171164;;2.171164;;;;;;;
44530;SPS30;30240;47.418;0.700;2023-08-21T03:44:59;1.8283519;;1.8283519;;;;;;;
44530;SPS30;30240;47.418;0.700;2023-08-21T03:47:24;1.8283519;;1.8283519;;;;;;;
44530;SPS30;30240;47.418;0.700;2023-08-21T03:49:49;2.1323197;;2.1088624;;;;;;;
44530;SPS30;30240;47.418;0.700;2023-08-21T03:52:14;1.8904971;;1.8904597;;;;;;;
44530;SPS30;30240;47.418;0.700;2023-08-21T03:54:38;1.841032;;1.841032;;;;;;;
44530;SPS30;30240;47.418;0.700;2023-08-21T03:57:04;2.175942;;2.1739962;;;;;;;
44530;SPS30;30240;47.418;0.700;2023-08-21T03:59:28;2.175942;;2.1739962;;;;;;;
44530;SPS30;30240;47.418;0.700;2023-08-21T04:01:53;1.906418;;1.8672886;;;;;;;
44530;SPS30;30240;47.418;0.700;2023-08-21T04:04:18;1.7871381;;1.7871381;;;;;;;
44530;SPS30;30240;47.418;0.700;2023-08-21T04:06:43;2.0350146;;2.0350146;;;;;;;
44530;SPS30;30240;47.418;0.700;2023-08-21T04:09:08;2.3919535;;2.3919456;;;;;;;
44530;SPS30;30240;47.418;0.700;2023-08-21T04:11:33;1.8379196;;1.8379196;;;;;;;
44530;SPS30;30240;47.418;0.700;2023-08-21T04:13:58;1.8379196;;1.8379196;;;;;;;
44530;SPS30;30240;47.418;0.700;2023-08-21T04:16:23;1.840639;;1.7894026;;;;;;;
44530;SPS30;30240;47.418;0.700;2023-08-21T04:18:48;2.2071695;;2.152407;;;;;;;
44530;SPS30;30240;47.418;0.700;2023-08-21T04:21:13;1.9305098;;1.8881967;;;;;;;
44530;SPS30;30240;47.418;0.700;2023-08-21T04:23:38;1.8329899;;1.7970709;;;;;;;
44530;SPS30;30240;47.418;0.700;2023-08-21T04:26:04;1.8329899;;1.7970709;;;;;;;
44530;SPS30;30240;47.418;0.700;2023-08-21T04:28:29;1.7086831;;1.7086831;;;;;;;
44530;SPS30;30240;47.418;0.700;2023-08-21T04:30:53;2.1981206;;2.1716888;;;;;;;
44530;SPS30;30240;47.418;0.700;2023-08-21T04:33:18;1.8417041;;1.8087823;;;;;;;
44530;SPS30;30240;47.418;0.700;2023-08-21T04:35:43;1.4903305;;1.4903305;;;;;;;
44530;SPS30;30240;47.418;0.700;2023-08-21T04:38:08;1.4903305;;1.4903305;;;;;;;
44530;SPS30;30240;47.418;0.700;2023-08-21T04:40:33;1.6976695;;1.676956;;;;;;;
44530;SPS30;30240;47.418;0.700;2023-08-21T04:42:58;1.7253627;;1.7253627;;;;;;;
44530;SPS30;30240;47.418;0.700;2023-08-21T04:45:24;2.0798807;;2.0798807;;;;;;;
44530;SPS30;30240;47.418;0.700;2023-08-21T04:47:49;1.9266117;;1.9120643;;;;;;;
44530;SPS30;30240;47.418;0.700;2023-08-21T04:50:14;1.9266117;;1.9120643;;;;;;;
44530;SPS30;30240;47.418;0.700;2023-08-21T04:52:38;1.4820485;;1.4680429;;;;;;;
44530;SPS30;30240;47.418;0.700;2023-08-21T04:55:05;2.113633;;2.0944154;;;;;;;
44530;SPS30;30240;47.418;0.700;2023-08-21T04:57:29;2.1962948;;2.1962948;;;;;;;
44530;SPS30;30240;47.418;0.700;2023-08-21T04:59:54;1.7305298;;1.7305298;;;;;;;
44530;SPS30;30240;47.418;0.700;2023-08-21T05:02:19;1.7305298;;1.7305298;;;;;;;
44530;SPS30;30240;47.418;0.700;2023-08-21T05:04:44;1.7939317;;1.7939317;;;;;;;
44530;SPS30;30240;47.418;0.700;2023-08-21T05:07:08;1.818021;;1.8143862;;;;;;;
44530;SPS30;30240;47.418;0.700;2023-08-21T05:09:33;1.3798733;;1.3737317;;;;;;;
44530;SPS30;30240;47.418;0.700;2023-08-21T05:11:58;2.1950705;;2.1950705;;;;;;;
44530;SPS30;30240;47.418;0.700;2023-08-21T05:14:23;2.1950705;;2.1950705;;;;;;;
44530;SPS30;30240;47.418;0.700;2023-08-21T05:16:49;2.0038018;;1.9725782;;;;;;;
44530;SPS30;30240;47.418;0.700;2023-08-21T05:19:13;1.9604769;;1.8915678;;;;;;;
44530;SPS30;30240;47.418;0.700;2023-08-21T05:21:38;1.7616721;;1.6983601;;;;;;;
44530;SPS30;30240;47.418;0.700;2023-08-21T05:24:03;2.0256844;;1.9632045;;;;;;;
44530;SPS30;30240;47.418;0.700;2023-08-21T05:26:28;2.0256844;;1.9632045;;;;;;;
44530;SPS30;30240;47.418;0.700;2023-08-21T05:28:53;2.014109;;1.9691219;;;;;;;
44530;SPS30;30240;47.418;0.700;2023-08-21T05:31:18;2.5718362;;2.52602;;;;;;;
44530;SPS30;30240;47.418;0.700;2023-08-21T05:33:43;4.0602636;;4.044795;;;;;;;
44530;SPS30;30240;47.418;0.700;2023-08-21T05:36:08;2.1019723;;2.0935912;;;;;;;
44530;SPS30;30240;47.418;0.700;2023-08-21T05:38:33;1.7941526;;1.7706151;;;;;;;
44530;SPS30;30240;47.418;0.700;2023-08-21T05:40:58;1.7941526;;1.7706151;;;;;;;
44530;SPS30;30240;47.418;0.700;2023-08-21T05:43:23;2.0679288;;2.0417686;;;;;;;
44530;SPS30;30240;47.418;0.700;2023-08-21T05:45:48;2.2082922;;2.1523073;;;;;;;
44530;SPS30;30240;47.418;0.700;2023-08-21T05:48:13;1.5540636;;1.5133103;;;;;;;
44530;SPS30;30240;47.418;0.700;2023-08-21T05:50:38;2.4060783;;2.3476934;;;;;;;
44530;SPS30;30240;47.418;0.700;2023-08-21T05:53:03;2.4060783;;2.3476934;;;;;;;
44530;SPS30;30240;47.418;0.700;2023-08-21T05:55:28;2.0950332;;2.0363975;;;;;;;
44530;SPS30;30240;47.418;0.700;2023-08-21T05:57:53;2.22284;;2.1637442;;;;;;;
44530;SPS30;30240;47.418;0.700;2023-08-21T06:00:19;2.1682734;;2.1241403;;;;;;;
44530;SPS30;30240;47.418;0.700;2023-08-21T06:02:43;1.8577645;;1.8202218;;;;;;;
44530;SPS30;30240;47.418;0.700;2023-08-21T06:05:08;1.8577645;;1.8202218;;;;;;;
44530;SPS30;30240;47.418;0.700;2023-08-21T06:07:33;1.8575864;;1.8109474;;;;;;;
44530;SPS30;30240;47.418;0.700;2023-08-21T06:09:58;1.941213;;1.8888762;;;;;;;
44530;SPS30;30240;47.418;0.700;2023-08-21T06:12:24;2.0676591;;2.0172584;;;;;;;
44530;SPS30;30240;47.418;0.700;2023-08-21T06:14:48;2.4845848;;2.4099276;;;;;;;
44530;SPS30;30240;47.418;0.700;2023-08-21T06:17:13;2.4845848;;2.4099276;;;;;;;
44530;SPS30;30240;47.418;0.700;2023-08-21T06:19:38;2.1274676;;2.052483;;;;;;;
44530;SPS30;30240;47.418;0.700;2023-08-21T06:22:04;2.647905;;2.6355147;;;;;;;
44530;SPS30;30240;47.418;0.700;2023-08-21T06:24:28;2.0163555;;1.9604906;;;;;;;
44530;SPS30;30240;47.418;0.700;2023-08-21T06:26:54;1.5550445;;1.5550445;;;;;;;
44530;SPS30;30240;47.418;0.700;2023-08-21T06:29:18;1.5550445;;1.5550445;;;;;;;
44530;SPS30;30240;47.418;0.700;2023-08-21T06:31:43;1.5106908;;1.5106908;;;;;;;
44530;SPS30;30240;47.418;0.700;2023-08-21T06:34:08;1.8614603;;1.8562267;;;;;;;
44530;SPS30;30240;47.418;0.700;2023-08-21T06:36:33;1.9036145;;1.8773421;;;;;;;
44530;SPS30;30240;47.418;0.700;2023-08-21T06:38:59;1.8827884;;1.8827884;;;;;;;
44530;SPS30;30240;47.418;0.700;2023-08-21T06:41:24;1.8827884;;1.8827884;;;;;;;
44530;SPS30;30240;47.418;0.700;2023-08-21T06:43:48;1.5478933;;1.5478933;;;;;;;
44530;SPS30;30240;47.418;0.700;2023-08-21T06:46:14;2.1650019;;2.111563;;;;;;;
44530;SPS30;30240;47.418;0.700;2023-08-21T06:48:39;2.1913056;;2.1319563;;;;;;;
44530;SPS30;30240;47.418;0.700;2023-08-21T06:51:04;1.9418969;;1.888484;;;;;;;
44530;SPS30;30240;47.418;0.700;2023-08-21T06:53:29;1.9418969;;1.888484;;;;;;;
44530;SPS30;30240;47.418;0.700;2023-08-21T06:55:53;1.879723;;1.82677;;;;;;;
44530;SPS30;30240;47.418;0.700;2023-08-21T06:58:18;1.4070488;;1.3700407;;;;;;;
44530;SPS30;30240;47.418;0.700;2023-08-21T07:00:43;1.6006289;;1.555993;;;;;;;
44530;SPS30;30240;47.418;0.700;2023-08-21T07:03:09;1.8581266;;1.7983865;;;;;;;
44530;SPS30;30240;47.418;0.700;2023-08-21T07:05:34;1.8581266;;1.7983865;;;;;;;
44530;SPS30;30240;47.418;0.700;2023-08-21T07:07:58;1.7005553;;1.6478314;;;;;;;
44530;SPS30;30240;47.418;0.700;2023-08-21T07:10:23;1.7756292;;1.7172544;;;;;;;
44530;SPS30;30240;47.418;0.700;2023-08-21T07:12:49;1.7110798;;1.6356006;;;;;;;
44530;SPS30;30240;47.418;0.700;2023-08-21T07:15:14;2.021758;;1.9364089;;;;;;;
44530;SPS30;30240;47.418;0.700;2023-08-21T07:17:38;2.0095215;;1.9347417;;;;;;;
44530;SPS30;30240;47.418;0.700;2023-08-21T07:20:04;2.0095215;;1.9347417;;;;;;;
44530;SPS30;30240;47.418;0.700;2023-08-21T07:22:28;1.5514714;;1.4895961;;;;;;;
44530;SPS30;30240;47.418;0.700;2023-08-21T07:24:53;2.322163;;2.2396214;;;;;;;
44530;SPS30;30240;47.418;0.700;2023-08-21T07:27:18;2.0102975;;1.9194297;;;;;;;
44530;SPS30;30240;47.418;0.700;2023-08-21T07:29:43;1.8866532;;1.7725531;;;;;;;
44530;SPS30;30240;47.418;0.700;2023-08-21T07:32:08;1.8866532;;1.7725531;;;;;;;
44530;SPS30;30240;47.418;0.700;2023-08-21T07:34:34;1.4389349;;1.3724295;;;;;;;
44530;SPS30;30240;47.418;0.700;2023-08-21T07:36:59;1.9039296;;1.8073316;;;;;;;
44530;SPS30;30240;47.418;0.700;2023-08-21T07:39:23;1.7440375;;1.6668177;;;;;;;
44530;SPS30;30240;47.418;0.700;2023-08-21T07:41:48;1.7162256;;1.6451157;;;;;;;
44530;SPS30;30240;47.418;0.700;2023-08-21T07:44:13;1.7162256;;1.6451157;;;;;;;
44530;SPS30;30240;47.418;0.700;2023-08-21T07:46:38;1.7321709;;1.6653148;;;;;;;
44530;SPS30;30240;47.418;0.700;2023-08-21T07:49:03;2.5080361;;2.4114192;;;;;;;
44530;SPS30;30240;47.418;0.700;2023-08-21T07:51:29;1.876136;;1.7885288;;;;;;;
44530;SPS30;30240;47.418;0.700;2023-08-21T07:53:54;2.2361383;;2.136692;;;;;;;
44530;SPS30;30240;47.418;0.700;2023-08-21T07:56:19;2.2361383;;2.136692;;;;;;;
44530;SPS30;30240;47.418;0.700;2023-08-21T07:58:43;1.757611;;1.6628792;;;;;;;
44530;SPS30;30240;47.418;0.700;2023-08-21T08:01:08;1.536401;;1.4664277;;;;;;;
44530;SPS30;30240;47.418;0.700;2023-08-21T08:03:34;1.9234242;;1.8234563;;;;;;;
44530;SPS30;30240;47.418;0.700;2023-08-21T08:06:01;2.122869;;2.0411227;;;;;;;
44530;SPS30;30240;47.418;0.700;2023-08-21T08:08:25;2.122869;;2.0411227;;;;;;;
44530;SPS30;30240;47.418;0.700;2023-08-21T08:10:54;1.9095907;;1.8439311;;;;;;;
44530;SPS30;30240;47.418;0.700;2023-08-21T08:13:13;1.4602196;;1.4025998;;;;;;;
44530;SPS30;30240;47.418;0.700;2023-08-21T08:15:38;1.8795704;;1.809767;;;;;;;
44530;SPS30;30240;47.418;0.700;2023-08-21T08:18:04;1.5857257;;1.5249524;;;;;;;
44530;SPS30;30240;47.418;0.700;2023-08-21T08:20:28;1.5857257;;1.5249524;;;;;;;
44530;SPS30;30240;47.418;0.700;2023-08-21T08:22:53;1.661641;;1.5923318;;;;;;;
44530;SPS30;30240;47.418;0.700;2023-08-21T08:25:19;1.8703365;;1.7922477;;;;;;;
44530;SPS30;30240;47.418;0.700;2023-08-21T08:27:43;1.4409919;;1.3825711;;;;;;;
44530;SPS30;30240;47.418;0.700;2023-08-21T08:30:09;1.7888438;;1.704833;;;;;;;
44530;SPS30;30240;47.418;0.700;2023-08-21T08:32:33;1.7888438;;1.704833;;;;;;;
44530;SPS30;30240;47.418;0.700;2023-08-21T08:34:58;2.0920136;;2.004178;;;;;;;
44530;SPS30;30240;47.418;0.700;2023-08-21T08:37:23;1.8753757;;1.7873772;;;;;;;
44530;SPS30;30240;47.418;0.700;2023-08-21T08:39:49;1.4077139;;1.3560405;;;;;;;
44530;SPS30;30240;47.418;0.700;2023-08-21T08:42:14;1.8675021;;1.8673524;;;;;;;
44530;SPS30;30240;47.418;0.700;2023-08-21T08:44:38;2.034368;;1.9788371;;;;;;;
44530;SPS30;30240;47.418;0.700;2023-08-21T08:47:04;2.034368;;1.9788371;;;;;;;
44530;SPS30;30240;47.418;0.700;2023-08-21T08:49:28;2.0369465;;1.9737228;;;;;;;
44530;SPS30;30240;47.418;0.700;2023-08-21T08:51:54;1.6906323;;1.6310887;;;;;;;
44530;SPS30;30240;47.418;0.700;2023-08-21T08:54:19;1.6595649;;1.5876386;;;;;;;
44530;SPS30;30240;47.418;0.700;2023-08-21T08:56:43;1.4506373;;1.3690413;;;;;;;
44530;SPS30;30240;47.418;0.700;2023-08-21T08:59:08;1.4506373;;1.3690413;;;;;;;
44530;SPS30;30240;47.418;0.700;2023-08-21T09:01:33;1.8102324;;1.7126976;;;;;;;
44530;SPS30;30240;47.418;0.700;2023-08-21T09:03:58;1.6637509;;1.5735167;;;;;;;
44530;SPS30;30240;47.418;0.700;2023-08-21T09:06:23;1.7304629;;1.6517017;;;;;;;
44530;SPS30;30240;47.418;0.700;2023-08-21T09:08:56;1.5381992;;1.4618934;;;;;;;
44530;SPS30;30240;47.418;0.700;2023-08-21T09:11:13;1.5381992;;1.4618934;;;;;;;
44530;SPS30;30240;47.418;0.700;2023-08-21T09:13:38;1.4886743;;1.4113808;;;;;;;
44530;SPS30;30240;47.418;0.700;2023-08-21T09:16:03;1.443566;;1.3477647;;;;;;;
44530;SPS30;30240;47.418;0.700;2023-08-21T09:18:28;1.681672;;1.5749824;;;;;;;
44530;SPS30;30240;47.418;0.700;2023-08-21T09:20:53;1.9431645;;1.823401;;;;;;;
44530;SPS30;30240;47.418;0.700;2023-08-21T09:23:18;1.9431645;;1.823401;;;;;;;
44530;SPS30;30240;47.418;0.700;2023-08-21T09:25:44;2.1923146;;2.0549307;;;;;;;
44530;SPS30;30240;47.418;0.700;2023-08-21T09:28:08;1.5666322;;1.4825696;;;;;;;
44530;SPS30;30240;47.418;0.700;2023-08-21T09:30:45;2.0203264;;1.93898;;;;;;;
44530;SPS30;30240;47.418;0.700;2023-08-21T09:32:59;1.514981;;1.450409;;;;;;;
44530;SPS30;30240;47.418;0.700;2023-08-21T09:35:24;1.514981;;1.450409;;;;;;;
44530;SPS30;30240;47.418;0.700;2023-08-21T09:37:48;1.478346;;1.4378484;;;;;;;
44530;SPS30;30240;47.418;0.700;2023-08-21T09:40:14;1.4231483;;1.3938107;;;;;;;
44530;SPS30;30240;47.418;0.700;2023-08-21T09:42:39;1.2524054;;1.2173607;;;;;;;
44530;SPS30;30240;47.418;0.700;2023-08-21T09:45:04;1.3477428;;1.3076828;;;;;;;
44530;SPS30;30240;47.418;0.700;2023-08-21T09:47:28;1.3477428;;1.3076828;;;;;;;
44530;SPS30;30240;47.418;0.700;2023-08-21T09:49:53;1.6540908;;1.5972931;;;;;;;
44530;SPS30;30240;47.418;0.700;2023-08-21T09:52:18;1.4042498;;1.3978547;;;;;;;
44530;SPS30;30240;47.418;0.700;2023-08-21T09:54:43;1.5655768;;1.5655768;;;;;;;
44530;SPS30;30240;47.418;0.700;2023-08-21T09:57:08;1.6902938;;1.6288232;;;;;;;
44530;SPS30;30240;47.418;0.700;2023-08-21T09:59:33;1.6902938;;1.6288232;;;;;;;
44530;SPS30;30240;47.418;0.700;2023-08-21T10:01:59;1.5313712;;1.4626421;;;;;;;
44530;SPS30;30240;47.418;0.700;2023-08-21T10:04:23;1.098644;;1.0554554;;;;;;;
44530;SPS30;30240;47.418;0.700;2023-08-21T10:06:48;1.1404762;;1.0893317;;;;;;;
44530;SPS30;30240;47.418;0.700;2023-08-21T10:09:14;1.2230736;;1.1685947;;;;;;;
44530;SPS30;30240;47.418;0.700;2023-08-21T10:11:38;1.2230736;;1.1685947;;;;;;;
44530;SPS30;30240;47.418;0.700;2023-08-21T10:14:03;1.6373137;;1.555052;;;;;;;
44530;SPS30;30240;47.418;0.700;2023-08-21T10:16:29;1.5427153;;1.4629128;;;;;;;
44530;SPS30;30240;47.418;0.700;2023-08-21T10:18:53;2.054849;;1.9670019;;;;;;;
44530;SPS30;30240;47.418;0.700;2023-08-21T10:21:19;1.0736821;;1.0200174;;;;;;;
44530;SPS30;30240;47.418;0.700;2023-08-21T10:23:46;1.3032718;;1.2448874;;;;;;;
44530;SPS30;30240;47.418;0.700;2023-08-21T10:26:09;1.3032718;;1.2448874;;;;;;;
44530;SPS30;30240;47.418;0.700;2023-08-21T10:28:42;0.9750717;;0.9437943;;;;;;;
44530;SPS30;30240;47.418;0.700;2023-08-21T10:31:30;1.0141995;;0.9875415;;;;;;;
44530;SPS30;30240;47.418;0.700;2023-08-21T10:33:45;1.242829;;1.1976446;;;;;;;
44530;SPS30;30240;47.418;0.700;2023-08-21T10:35:48;0.9790521;;0.94342893;;;;;;;
44530;SPS30;30240;47.418;0.700;2023-08-21T10:38:13;0.9790521;;0.94342893;;;;;;;
44530;SPS30;30240;47.418;0.700;2023-08-21T10:40:39;1.1882904;;1.1517239;;;;;;;
44530;SPS30;30240;47.418;0.700;2023-08-21T10:43:03;1.3014312;;1.2444694;;;;;;;
44530;SPS30;30240;47.418;0.700;2023-08-21T10:45:29;1.4082953;;1.3756069;;;;;;;
44530;SPS30;30240;47.418;0.700;2023-08-21T10:47:56;1.0518605;;1.0504389;;;;;;;
44530;SPS30;30240;47.418;0.700;2023-08-21T10:50:18;1.0518605;;1.0504389;;;;;;;
44530;SPS30;30240;47.418;0.700;2023-08-21T10:52:43;0.9221911;;0.8932914;;;;;;;
44530;SPS30;30240;47.418;0.700;2023-08-21T10:55:09;1.3916633;;1.3805372;;;;;;;
44530;SPS30;30240;47.418;0.700;2023-08-21T10:57:33;1.2906339;;1.2906339;;;;;;;
44530;SPS30;30240;47.418;0.700;2023-08-21T10:59:59;1.3481401;;1.3481401;;;;;;;
44530;SPS30;30240;47.418;0.700;2023-08-21T11:02:24;1.3481401;;1.3481401;;;;;;;
44530;SPS30;30240;47.418;0.700;2023-08-21T11:04:49;1.1312684;;1.1312684;;;;;;;
44530;SPS30;30240;47.418;0.700;2023-08-21T11:07:13;1.4900618;;1.4900618;;;;;;;
44530;SPS30;30240;47.418;0.700;2023-08-21T11:09:38;0.9052149;;0.9025965;;;;;;;
44530;SPS30;30240;47.418;0.700;2023-08-21T11:12:05;1.1786134;;1.1786134;;;;;;;
44530;SPS30;30240;47.418;0.700;2023-08-21T11:14:28;1.1786134;;1.1786134;;;;;;;
44530;SPS30;30240;47.418;0.700;2023-08-21T11:16:53;2.8346467;;2.8346467;;;;;;;
44530;SPS30;30240;47.418;0.700;2023-08-21T11:19:18;1.6188571;;1.6188571;;;;;;;
44530;SPS30;30240;47.418;0.700;2023-08-21T11:21:48;1.2488824;;1.2438626;;;;;;;
44530;SPS30;30240;47.418;0.700;2023-08-21T11:24:08;1.3870828;;1.3791406;;;;;;;
44530;SPS30;30240;47.418;0.700;2023-08-21T11:26:33;1.3870828;;1.3791406;;;;;;;
44530;SPS30;30240;47.418;0.700;2023-08-21T11:28:58;1.0794867;;1.0794867;;;;;;;
44530;SPS30;30240;47.418;0.700;2023-08-21T11:31:24;1.2261777;;1.2261777;;;;;;;
44530;SPS30;30240;47.418;0.700;2023-08-21T11:33:49;1.1654507;;1.1654507;;;;;;;
44530;SPS30;30240;47.418;0.700;2023-08-21T11:36:13;1.2075341;;1.2075341;;;;;;;
44530;SPS30;30240;47.418;0.700;2023-08-21T11:38:38;1.2075341;;1.2075341;;;;;;;
44530;SPS30;30240;47.418;0.700;2023-08-21T11:41:05;1.3200827;;1.3200827;;;;;;;
44530;SPS30;30240;47.418;0.700;2023-08-21T11:43:34;1.1084075;;1.1084075;;;;;;;
44530;SPS30;30240;47.418;0.700;2023-08-21T11:45:53;0.9451095;;0.9451095;;;;;;;
44530;SPS30;30240;47.418;0.700;2023-08-21T11:48:19;0.78245413;;0.78245413;;;;;;;
44530;SPS30;30240;47.418;0.700;2023-08-21T11:50:43;1.0666319;;1.0666319;;;;;;;
44530;SPS30;30240;47.418;0.700;2023-08-21T11:53:08;1.0666319;;1.0666319;;;;;;;
44530;SPS30;30240;47.418;0.700;2023-08-21T11:55:34;1.0463682;;1.0463682;;;;;;;
44530;SPS30;30240;47.418;0.700;2023-08-21T11:57:59;0.8669166;;0.8669166;;;;;;;
44530;SPS30;30240;47.418;0.700;2023-08-21T12:00:26;0.8233103;;0.8233103;;;;;;;
44530;SPS30;30240;47.418;0.700;2023-08-21T12:02:56;1.0902;;1.0902;;;;;;;
44530;SPS30;30240;47.418;0.700;2023-08-21T12:05:14;1.0902;;1.0902;;;;;;;
44530;SPS30;30240;47.418;0.700;2023-08-21T12:07:39;1.2008413;;1.2008413;;;;;;;
44530;SPS30;30240;47.418;0.700;2023-08-21T12:10:04;1.001145;;0.98787993;;;;;;;
44530;SPS30;30240;47.418;0.700;2023-08-21T12:12:29;1.1149334;;1.1036733;;;;;;;